sensor_id;sensor_type;location;lat;lon;timestamp;P1;durP1;ratioP1;P2;durP2;ratioP2
62696;SDS011;48761;42.680;23.312;2023-05-27T00:02:16;23.60;;;16.52;;
62696;SDS011;48761;42.680;23.312;2023-05-27T00:04:42;25.13;;;16.75;;
62696;SDS011;48761;42.680;23.312;2023-05-27T00:07:08;22.67;;;16.85;;
62696;SDS011;48761;42.680;23.312;2023-05-27T00:09:34;24.83;;;17.48;;
62696;SDS011;48761;42.680;23.312;2023-05-27T00:12:00;25.20;;;17.85;;
62696;SDS011;48761;42.680;23.312;2023-05-27T00:14:27;30.00;;;19.40;;
62696;SDS011;48761;42.680;23.312;2023-05-27T00:16:53;30.13;;;18.75;;
62696;SDS011;48761;42.680;23.312;2023-05-27T00:19:19;28.00;;;19.52;;
62696;SDS011;48761;42.680;23.312;2023-05-27T00:21:45;28.63;;;19.52;;
62696;SDS011;48761;42.680;23.312;2023-05-27T00:24:11;29.48;;;20.38;;
62696;SDS011;48761;42.680;23.312;2023-05-27T00:26:37;23.60;;;16.27;;
62696;SDS011;48761;42.680;23.312;2023-05-27T00:29:03;19.20;;;14.15;;
62696;SDS011;48761;42.680;23.312;2023-05-27T00:31:29;15.45;;;10.38;;
62696;SDS011;48761;42.680;23.312;2023-05-27T00:33:55;19.58;;;13.40;;
62696;SDS011;48761;42.680;23.312;2023-05-27T00:36:21;21.50;;;13.90;;
62696;SDS011;48761;42.680;23.312;2023-05-27T00:38:50;18.35;;;13.40;;
62696;SDS011;48761;42.680;23.312;2023-05-27T00:41:16;18.30;;;14.40;;
62696;SDS011;48761;42.680;23.312;2023-05-27T00:43:43;16.27;;;12.32;;
62696;SDS011;48761;42.680;23.312;2023-05-27T00:46:09;15.82;;;12.32;;
62696;SDS011;48761;42.680;23.312;2023-05-27T00:48:36;14.05;;;10.63;;
62696;SDS011;48761;42.680;23.312;2023-05-27T00:51:02;16.48;;;10.00;;
62696;SDS011;48761;42.680;23.312;2023-05-27T00:53:29;10.43;;;7.72;;
62696;SDS011;48761;42.680;23.312;2023-05-27T00:56:04;11.70;;;7.70;;
62696;SDS011;48761;42.680;23.312;2023-05-27T00:58:32;8.15;;;5.88;;
62696;SDS011;48761;42.680;23.312;2023-05-27T01:01:00;9.25;;;6.30;;
62696;SDS011;48761;42.680;23.312;2023-05-27T01:03:27;7.07;;;5.90;;
62696;SDS011;48761;42.680;23.312;2023-05-27T01:05:59;7.43;;;5.20;;
62696;SDS011;48761;42.680;23.312;2023-05-27T01:11:20;5.00;;;3.42;;
62696;SDS011;48761;42.680;23.312;2023-05-27T01:13:52;3.17;;;2.20;;
62696;SDS011;48761;42.680;23.312;2023-05-27T01:16:24;3.15;;;2.10;;
62696;SDS011;48761;42.680;23.312;2023-05-27T01:18:53;3.17;;;1.95;;
62696;SDS011;48761;42.680;23.312;2023-05-27T01:21:20;6.78;;;4.30;;
62696;SDS011;48761;42.680;23.312;2023-05-27T01:23:47;5.05;;;3.38;;
62696;SDS011;48761;42.680;23.312;2023-05-27T01:26:14;4.93;;;2.75;;
62696;SDS011;48761;42.680;23.312;2023-05-27T01:28:40;4.90;;;3.03;;
62696;SDS011;48761;42.680;23.312;2023-05-27T01:33:54;2.92;;;2.00;;
62696;SDS011;48761;42.680;23.312;2023-05-27T01:36:26;4.45;;;3.08;;
62696;SDS011;48761;42.680;23.312;2023-05-27T01:38:56;3.08;;;2.47;;
62696;SDS011;48761;42.680;23.312;2023-05-27T01:41:24;3.90;;;2.42;;
62696;SDS011;48761;42.680;23.312;2023-05-27T01:43:51;3.60;;;2.60;;
62696;SDS011;48761;42.680;23.312;2023-05-27T01:46:17;4.75;;;2.50;;
62696;SDS011;48761;42.680;23.312;2023-05-27T01:48:44;3.25;;;1.83;;
62696;SDS011;48761;42.680;23.312;2023-05-27T01:51:10;3.72;;;2.30;;
62696;SDS011;48761;42.680;23.312;2023-05-27T01:53:35;4.13;;;2.92;;
62696;SDS011;48761;42.680;23.312;2023-05-27T01:56:02;4.15;;;3.03;;
62696;SDS011;48761;42.680;23.312;2023-05-27T01:58:27;5.38;;;3.42;;
62696;SDS011;48761;42.680;23.312;2023-05-27T02:00:54;3.92;;;3.17;;
62696;SDS011;48761;42.680;23.312;2023-05-27T02:03:20;4.95;;;3.38;;
62696;SDS011;48761;42.680;23.312;2023-05-27T02:05:46;8.65;;;3.28;;
62696;SDS011;48761;42.680;23.312;2023-05-27T02:08:11;4.45;;;2.80;;
62696;SDS011;48761;42.680;23.312;2023-05-27T02:10:37;4.35;;;3.42;;
62696;SDS011;48761;42.680;23.312;2023-05-27T02:13:03;4.65;;;3.75;;
62696;SDS011;48761;42.680;23.312;2023-05-27T02:15:30;8.52;;;4.20;;
62696;SDS011;48761;42.680;23.312;2023-05-27T02:17:56;7.32;;;4.50;;
62696;SDS011;48761;42.680;23.312;2023-05-27T02:20:22;6.60;;;4.00;;
62696;SDS011;48761;42.680;23.312;2023-05-27T02:22:49;6.15;;;3.70;;
62696;SDS011;48761;42.680;23.312;2023-05-27T02:25:16;4.40;;;3.80;;
62696;SDS011;48761;42.680;23.312;2023-05-27T02:27:45;4.28;;;3.55;;
62696;SDS011;48761;42.680;23.312;2023-05-27T02:30:12;18.30;;;12.45;;
62696;SDS011;48761;42.680;23.312;2023-05-27T02:32:38;9.52;;;5.97;;
62696;SDS011;48761;42.680;23.312;2023-05-27T02:35:04;6.03;;;4.40;;
62696;SDS011;48761;42.680;23.312;2023-05-27T02:37:31;6.72;;;4.03;;
62696;SDS011;48761;42.680;23.312;2023-05-27T02:39:57;5.45;;;3.78;;
62696;SDS011;48761;42.680;23.312;2023-05-27T02:42:22;5.18;;;4.28;;
62696;SDS011;48761;42.680;23.312;2023-05-27T02:44:48;5.43;;;3.85;;
62696;SDS011;48761;42.680;23.312;2023-05-27T02:47:14;7.38;;;3.97;;
62696;SDS011;48761;42.680;23.312;2023-05-27T02:49:40;5.47;;;4.15;;
62696;SDS011;48761;42.680;23.312;2023-05-27T02:52:06;8.38;;;5.65;;
62696;SDS011;48761;42.680;23.312;2023-05-27T02:54:32;7.13;;;5.53;;
62696;SDS011;48761;42.680;23.312;2023-05-27T02:56:58;9.05;;;6.00;;
62696;SDS011;48761;42.680;23.312;2023-05-27T02:59:24;9.48;;;6.25;;
62696;SDS011;48761;42.680;23.312;2023-05-27T03:01:50;9.57;;;7.50;;
62696;SDS011;48761;42.680;23.312;2023-05-27T03:04:16;10.82;;;8.18;;
62696;SDS011;48761;42.680;23.312;2023-05-27T03:06:42;10.13;;;8.10;;
62696;SDS011;48761;42.680;23.312;2023-05-27T03:09:08;9.55;;;8.02;;
62696;SDS011;48761;42.680;23.312;2023-05-27T03:11:34;10.05;;;8.05;;
62696;SDS011;48761;42.680;23.312;2023-05-27T03:14:00;13.82;;;8.95;;
62696;SDS011;48761;42.680;23.312;2023-05-27T03:16:26;11.40;;;8.50;;
62696;SDS011;48761;42.680;23.312;2023-05-27T03:18:52;11.82;;;8.70;;
62696;SDS011;48761;42.680;23.312;2023-05-27T03:21:18;10.57;;;8.75;;
62696;SDS011;48761;42.680;23.312;2023-05-27T03:23:44;10.82;;;8.45;;
62696;SDS011;48761;42.680;23.312;2023-05-27T03:26:10;11.05;;;8.02;;
62696;SDS011;48761;42.680;23.312;2023-05-27T03:28:37;9.65;;;7.47;;
62696;SDS011;48761;42.680;23.312;2023-05-27T03:31:03;12.43;;;8.77;;
62696;SDS011;48761;42.680;23.312;2023-05-27T03:33:29;15.75;;;11.85;;
62696;SDS011;48761;42.680;23.312;2023-05-27T03:35:55;13.25;;;9.88;;
62696;SDS011;48761;42.680;23.312;2023-05-27T03:38:21;14.50;;;10.20;;
62696;SDS011;48761;42.680;23.312;2023-05-27T03:40:47;13.68;;;9.52;;
62696;SDS011;48761;42.680;23.312;2023-05-27T03:43:13;16.92;;;12.55;;
62696;SDS011;48761;42.680;23.312;2023-05-27T03:45:39;11.82;;;9.32;;
62696;SDS011;48761;42.680;23.312;2023-05-27T03:48:05;11.02;;;8.55;;
62696;SDS011;48761;42.680;23.312;2023-05-27T03:50:32;13.35;;;9.23;;
62696;SDS011;48761;42.680;23.312;2023-05-27T03:52:59;12.60;;;9.63;;
62696;SDS011;48761;42.680;23.312;2023-05-27T03:55:25;11.38;;;9.10;;
62696;SDS011;48761;42.680;23.312;2023-05-27T03:57:51;11.80;;;9.07;;
62696;SDS011;48761;42.680;23.312;2023-05-27T04:00:17;10.27;;;8.68;;
62696;SDS011;48761;42.680;23.312;2023-05-27T04:02:43;11.27;;;8.93;;
62696;SDS011;48761;42.680;23.312;2023-05-27T04:05:09;10.88;;;8.65;;
62696;SDS011;48761;42.680;23.312;2023-05-27T04:07:35;12.90;;;7.97;;
62696;SDS011;48761;42.680;23.312;2023-05-27T04:10:02;10.75;;;8.13;;
62696;SDS011;48761;42.680;23.312;2023-05-27T04:12:29;10.65;;;7.13;;
62696;SDS011;48761;42.680;23.312;2023-05-27T04:14:55;10.65;;;7.47;;
62696;SDS011;48761;42.680;23.312;2023-05-27T04:17:21;9.90;;;7.70;;
62696;SDS011;48761;42.680;23.312;2023-05-27T04:19:48;10.07;;;7.68;;
62696;SDS011;48761;42.680;23.312;2023-05-27T04:22:13;9.63;;;7.55;;
62696;SDS011;48761;42.680;23.312;2023-05-27T04:24:39;27.95;;;19.33;;
62696;SDS011;48761;42.680;23.312;2023-05-27T04:27:05;15.93;;;12.02;;
62696;SDS011;48761;42.680;23.312;2023-05-27T04:29:32;17.77;;;12.32;;
62696;SDS011;48761;42.680;23.312;2023-05-27T04:31:58;11.35;;;7.80;;
62696;SDS011;48761;42.680;23.312;2023-05-27T04:34:24;14.07;;;10.50;;
62696;SDS011;48761;42.680;23.312;2023-05-27T04:36:51;11.77;;;8.02;;
62696;SDS011;48761;42.680;23.312;2023-05-27T04:39:17;11.20;;;7.75;;
62696;SDS011;48761;42.680;23.312;2023-05-27T04:41:44;11.13;;;7.10;;
62696;SDS011;48761;42.680;23.312;2023-05-27T04:44:10;9.98;;;7.70;;
62696;SDS011;48761;42.680;23.312;2023-05-27T04:46:38;13.27;;;7.88;;
62696;SDS011;48761;42.680;23.312;2023-05-27T04:49:07;10.55;;;7.70;;
62696;SDS011;48761;42.680;23.312;2023-05-27T04:51:35;14.48;;;10.63;;
62696;SDS011;48761;42.680;23.312;2023-05-27T04:54:02;11.88;;;8.02;;
62696;SDS011;48761;42.680;23.312;2023-05-27T04:56:31;10.40;;;7.60;;
62696;SDS011;48761;42.680;23.312;2023-05-27T04:59:14;10.43;;;6.57;;
62696;SDS011;48761;42.680;23.312;2023-05-27T05:01:47;10.02;;;6.05;;
62696;SDS011;48761;42.680;23.312;2023-05-27T05:04:31;9.63;;;6.20;;
62696;SDS011;48761;42.680;23.312;2023-05-27T05:06:58;9.00;;;5.50;;
62696;SDS011;48761;42.680;23.312;2023-05-27T05:09:25;9.50;;;5.90;;
62696;SDS011;48761;42.680;23.312;2023-05-27T05:12:03;10.85;;;7.53;;
62696;SDS011;48761;42.680;23.312;2023-05-27T05:14:35;10.98;;;6.60;;
62696;SDS011;48761;42.680;23.312;2023-05-27T05:17:09;11.43;;;7.60;;
62696;SDS011;48761;42.680;23.312;2023-05-27T05:19:37;9.98;;;6.65;;
62696;SDS011;48761;42.680;23.312;2023-05-27T05:22:05;9.02;;;6.00;;
62696;SDS011;48761;42.680;23.312;2023-05-27T05:24:32;8.18;;;6.10;;
62696;SDS011;48761;42.680;23.312;2023-05-27T05:26:58;14.73;;;9.27;;
62696;SDS011;48761;42.680;23.312;2023-05-27T05:29:25;7.70;;;5.32;;
62696;SDS011;48761;42.680;23.312;2023-05-27T05:31:52;9.05;;;6.85;;
62696;SDS011;48761;42.680;23.312;2023-05-27T05:34:18;10.05;;;5.78;;
62696;SDS011;48761;42.680;23.312;2023-05-27T05:36:44;15.55;;;7.63;;
62696;SDS011;48761;42.680;23.312;2023-05-27T05:39:10;12.50;;;9.02;;
62696;SDS011;48761;42.680;23.312;2023-05-27T05:41:36;9.85;;;5.55;;
62696;SDS011;48761;42.680;23.312;2023-05-27T05:44:02;14.70;;;6.45;;
62696;SDS011;48761;42.680;23.312;2023-05-27T05:46:28;22.70;;;15.10;;
62696;SDS011;48761;42.680;23.312;2023-05-27T05:48:54;27.88;;;20.33;;
62696;SDS011;48761;42.680;23.312;2023-05-27T05:51:21;13.98;;;9.18;;
62696;SDS011;48761;42.680;23.312;2023-05-27T05:53:47;17.73;;;7.82;;
62696;SDS011;48761;42.680;23.312;2023-05-27T05:56:15;31.90;;;21.63;;
62696;SDS011;48761;42.680;23.312;2023-05-27T05:58:41;11.13;;;7.50;;
62696;SDS011;48761;42.680;23.312;2023-05-27T06:01:11;12.23;;;8.63;;
62696;SDS011;48761;42.680;23.312;2023-05-27T06:03:38;21.08;;;12.48;;
62696;SDS011;48761;42.680;23.312;2023-05-27T06:06:04;11.25;;;8.00;;
62696;SDS011;48761;42.680;23.312;2023-05-27T06:08:31;13.05;;;7.70;;
62696;SDS011;48761;42.680;23.312;2023-05-27T06:10:57;16.08;;;8.30;;
62696;SDS011;48761;42.680;23.312;2023-05-27T06:13:24;11.75;;;8.10;;
62696;SDS011;48761;42.680;23.312;2023-05-27T06:15:59;19.98;;;11.93;;
62696;SDS011;48761;42.680;23.312;2023-05-27T06:18:26;9.07;;;6.40;;
62696;SDS011;48761;42.680;23.312;2023-05-27T06:20:52;10.98;;;7.00;;
62696;SDS011;48761;42.680;23.312;2023-05-27T06:23:18;13.55;;;7.43;;
62696;SDS011;48761;42.680;23.312;2023-05-27T06:25:44;8.35;;;6.75;;
62696;SDS011;48761;42.680;23.312;2023-05-27T06:28:10;10.93;;;7.53;;
62696;SDS011;48761;42.680;23.312;2023-05-27T06:30:38;9.55;;;7.38;;
62696;SDS011;48761;42.680;23.312;2023-05-27T06:33:06;13.93;;;7.05;;
62696;SDS011;48761;42.680;23.312;2023-05-27T06:35:32;9.80;;;6.97;;
62696;SDS011;48761;42.680;23.312;2023-05-27T06:37:58;9.38;;;6.80;;
62696;SDS011;48761;42.680;23.312;2023-05-27T06:40:24;13.07;;;7.60;;
62696;SDS011;48761;42.680;23.312;2023-05-27T06:42:50;11.35;;;7.82;;
62696;SDS011;48761;42.680;23.312;2023-05-27T06:45:16;12.52;;;8.25;;
62696;SDS011;48761;42.680;23.312;2023-05-27T06:47:42;17.70;;;10.50;;
62696;SDS011;48761;42.680;23.312;2023-05-27T06:50:08;16.58;;;11.38;;
62696;SDS011;48761;42.680;23.312;2023-05-27T06:52:34;16.35;;;9.50;;
62696;SDS011;48761;42.680;23.312;2023-05-27T06:55:00;12.77;;;10.13;;
62696;SDS011;48761;42.680;23.312;2023-05-27T06:57:26;16.65;;;10.32;;
62696;SDS011;48761;42.680;23.312;2023-05-27T06:59:52;14.25;;;8.00;;
62696;SDS011;48761;42.680;23.312;2023-05-27T07:02:18;17.05;;;8.57;;
62696;SDS011;48761;42.680;23.312;2023-05-27T07:04:44;17.42;;;9.35;;
62696;SDS011;48761;42.680;23.312;2023-05-27T07:07:10;16.08;;;9.38;;
62696;SDS011;48761;42.680;23.312;2023-05-27T07:09:36;13.13;;;9.55;;
62696;SDS011;48761;42.680;23.312;2023-05-27T07:12:02;10.05;;;7.85;;
62696;SDS011;48761;42.680;23.312;2023-05-27T07:14:28;14.30;;;9.15;;
62696;SDS011;48761;42.680;23.312;2023-05-27T07:16:54;9.93;;;7.78;;
62696;SDS011;48761;42.680;23.312;2023-05-27T07:19:20;11.27;;;7.40;;
62696;SDS011;48761;42.680;23.312;2023-05-27T07:21:46;11.18;;;7.32;;
62696;SDS011;48761;42.680;23.312;2023-05-27T07:24:12;10.65;;;7.70;;
62696;SDS011;48761;42.680;23.312;2023-05-27T07:26:38;15.60;;;8.30;;
62696;SDS011;48761;42.680;23.312;2023-05-27T07:29:04;11.90;;;8.30;;
62696;SDS011;48761;42.680;23.312;2023-05-27T07:31:30;14.40;;;8.88;;
62696;SDS011;48761;42.680;23.312;2023-05-27T07:33:55;15.00;;;7.93;;
62696;SDS011;48761;42.680;23.312;2023-05-27T07:36:21;14.75;;;9.35;;
62696;SDS011;48761;42.680;23.312;2023-05-27T07:38:48;10.55;;;7.70;;
62696;SDS011;48761;42.680;23.312;2023-05-27T07:41:14;8.85;;;6.47;;
62696;SDS011;48761;42.680;23.312;2023-05-27T07:43:40;10.30;;;6.38;;
62696;SDS011;48761;42.680;23.312;2023-05-27T07:46:06;14.98;;;7.13;;
62696;SDS011;48761;42.680;23.312;2023-05-27T07:48:32;11.52;;;7.60;;
62696;SDS011;48761;42.680;23.312;2023-05-27T07:50:58;11.90;;;7.70;;
62696;SDS011;48761;42.680;23.312;2023-05-27T07:53:24;9.20;;;7.18;;
62696;SDS011;48761;42.680;23.312;2023-05-27T07:55:50;11.40;;;6.43;;
62696;SDS011;48761;42.680;23.312;2023-05-27T07:58:16;10.18;;;6.57;;
62696;SDS011;48761;42.680;23.312;2023-05-27T08:00:42;9.95;;;5.90;;
62696;SDS011;48761;42.680;23.312;2023-05-27T08:03:08;10.60;;;6.07;;
62696;SDS011;48761;42.680;23.312;2023-05-27T08:05:33;10.15;;;6.13;;
62696;SDS011;48761;42.680;23.312;2023-05-27T08:08:00;11.82;;;8.02;;
62696;SDS011;48761;42.680;23.312;2023-05-27T08:10:26;8.55;;;6.13;;
62696;SDS011;48761;42.680;23.312;2023-05-27T08:12:52;11.60;;;6.72;;
62696;SDS011;48761;42.680;23.312;2023-05-27T08:15:18;9.25;;;6.32;;
62696;SDS011;48761;42.680;23.312;2023-05-27T08:17:44;8.50;;;5.75;;
62696;SDS011;48761;42.680;23.312;2023-05-27T08:20:10;9.75;;;6.07;;
62696;SDS011;48761;42.680;23.312;2023-05-27T08:22:37;10.48;;;5.63;;
62696;SDS011;48761;42.680;23.312;2023-05-27T08:25:03;11.35;;;5.65;;
62696;SDS011;48761;42.680;23.312;2023-05-27T08:28:03;8.68;;;5.70;;
62696;SDS011;48761;42.680;23.312;2023-05-27T08:30:22;9.13;;;5.78;;
62696;SDS011;48761;42.680;23.312;2023-05-27T08:32:48;5.82;;;4.65;;
62696;SDS011;48761;42.680;23.312;2023-05-27T08:35:14;8.60;;;4.97;;
62696;SDS011;48761;42.680;23.312;2023-05-27T08:37:40;7.35;;;5.22;;
62696;SDS011;48761;42.680;23.312;2023-05-27T08:40:07;7.22;;;5.35;;
62696;SDS011;48761;42.680;23.312;2023-05-27T08:42:36;6.47;;;4.75;;
62696;SDS011;48761;42.680;23.312;2023-05-27T08:45:02;7.20;;;5.20;;
62696;SDS011;48761;42.680;23.312;2023-05-27T08:47:28;7.22;;;5.22;;
62696;SDS011;48761;42.680;23.312;2023-05-27T08:49:54;6.95;;;5.03;;
62696;SDS011;48761;42.680;23.312;2023-05-27T08:52:20;9.32;;;5.70;;
62696;SDS011;48761;42.680;23.312;2023-05-27T08:54:47;8.57;;;4.97;;
62696;SDS011;48761;42.680;23.312;2023-05-27T08:57:15;6.47;;;4.90;;
62696;SDS011;48761;42.680;23.312;2023-05-27T08:59:43;6.85;;;4.60;;
62696;SDS011;48761;42.680;23.312;2023-05-27T09:02:12;9.32;;;5.65;;
62696;SDS011;48761;42.680;23.312;2023-05-27T09:04:38;9.18;;;5.32;;
62696;SDS011;48761;42.680;23.312;2023-05-27T09:07:05;9.63;;;5.50;;
62696;SDS011;48761;42.680;23.312;2023-05-27T09:09:32;8.48;;;5.20;;
62696;SDS011;48761;42.680;23.312;2023-05-27T09:12:01;8.45;;;5.50;;
62696;SDS011;48761;42.680;23.312;2023-05-27T09:14:28;7.57;;;5.70;;
62696;SDS011;48761;42.680;23.312;2023-05-27T09:16:55;6.40;;;5.35;;
62696;SDS011;48761;42.680;23.312;2023-05-27T09:19:21;11.38;;;6.25;;
62696;SDS011;48761;42.680;23.312;2023-05-27T09:21:53;6.70;;;5.00;;
62696;SDS011;48761;42.680;23.312;2023-05-27T09:24:19;7.47;;;5.97;;
62696;SDS011;48761;42.680;23.312;2023-05-27T09:26:50;9.73;;;6.38;;
62696;SDS011;48761;42.680;23.312;2023-05-27T09:29:18;8.40;;;6.00;;
62696;SDS011;48761;42.680;23.312;2023-05-27T09:31:44;10.52;;;7.28;;
62696;SDS011;48761;42.680;23.312;2023-05-27T09:34:16;9.18;;;6.57;;
62696;SDS011;48761;42.680;23.312;2023-05-27T09:39:16;11.80;;;7.20;;
62696;SDS011;48761;42.680;23.312;2023-05-27T09:41:43;10.55;;;7.00;;
62696;SDS011;48761;42.680;23.312;2023-05-27T09:44:15;11.25;;;6.38;;
62696;SDS011;48761;42.680;23.312;2023-05-27T09:46:42;9.63;;;5.63;;
62696;SDS011;48761;42.680;23.312;2023-05-27T09:49:10;7.38;;;5.57;;
62696;SDS011;48761;42.680;23.312;2023-05-27T09:51:39;12.75;;;6.57;;
62696;SDS011;48761;42.680;23.312;2023-05-27T09:54:06;7.50;;;6.07;;
62696;SDS011;48761;42.680;23.312;2023-05-27T09:56:33;6.07;;;5.07;;
62696;SDS011;48761;42.680;23.312;2023-05-27T09:58:59;9.63;;;5.97;;
62696;SDS011;48761;42.680;23.312;2023-05-27T10:01:27;9.10;;;5.68;;
62696;SDS011;48761;42.680;23.312;2023-05-27T10:03:54;8.63;;;5.55;;
62696;SDS011;48761;42.680;23.312;2023-05-27T10:06:21;10.10;;;5.97;;
62696;SDS011;48761;42.680;23.312;2023-05-27T10:08:47;17.40;;;9.38;;
62696;SDS011;48761;42.680;23.312;2023-05-27T10:11:13;10.13;;;7.07;;
62696;SDS011;48761;42.680;23.312;2023-05-27T10:13:39;9.10;;;6.22;;
62696;SDS011;48761;42.680;23.312;2023-05-27T10:16:06;9.30;;;5.60;;
62696;SDS011;48761;42.680;23.312;2023-05-27T10:18:32;8.90;;;5.40;;
62696;SDS011;48761;42.680;23.312;2023-05-27T10:20:58;8.48;;;5.30;;
62696;SDS011;48761;42.680;23.312;2023-05-27T10:23:25;7.72;;;5.97;;
62696;SDS011;48761;42.680;23.312;2023-05-27T10:25:52;9.25;;;5.95;;
62696;SDS011;48761;42.680;23.312;2023-05-27T10:33:40;9.13;;;5.72;;
62696;SDS011;48761;42.680;23.312;2023-05-27T10:36:11;12.63;;;5.85;;
62696;SDS011;48761;42.680;23.312;2023-05-27T10:38:41;6.40;;;5.53;;
62696;SDS011;48761;42.680;23.312;2023-05-27T10:41:08;8.30;;;6.20;;
62696;SDS011;48761;42.680;23.312;2023-05-27T10:43:35;5.22;;;4.72;;
62696;SDS011;48761;42.680;23.312;2023-05-27T10:46:02;7.90;;;5.07;;
62696;SDS011;48761;42.680;23.312;2023-05-27T10:48:30;8.90;;;5.50;;
62696;SDS011;48761;42.680;23.312;2023-05-27T10:50:57;9.25;;;5.75;;
62696;SDS011;48761;42.680;23.312;2023-05-27T10:53:25;10.60;;;6.07;;
62696;SDS011;48761;42.680;23.312;2023-05-27T10:55:51;6.85;;;5.38;;
62696;SDS011;48761;42.680;23.312;2023-05-27T10:58:18;7.57;;;5.40;;
62696;SDS011;48761;42.680;23.312;2023-05-27T11:00:45;7.95;;;5.35;;
62696;SDS011;48761;42.680;23.312;2023-05-27T11:06:03;9.00;;;5.15;;
62696;SDS011;48761;42.680;23.312;2023-05-27T11:08:31;10.57;;;6.07;;
62696;SDS011;48761;42.680;23.312;2023-05-27T11:10:58;12.15;;;5.93;;
62696;SDS011;48761;42.680;23.312;2023-05-27T11:16:00;11.65;;;5.30;;
62696;SDS011;48761;42.680;23.312;2023-05-27T11:18:36;9.68;;;6.53;;
62696;SDS011;48761;42.680;23.312;2023-05-27T11:21:04;6.22;;;4.80;;
62696;SDS011;48761;42.680;23.312;2023-05-27T11:23:35;7.22;;;5.65;;
62696;SDS011;48761;42.680;23.312;2023-05-27T11:26:26;9.68;;;5.65;;
62696;SDS011;48761;42.680;23.312;2023-05-27T11:28:52;8.57;;;4.70;;
62696;SDS011;48761;42.680;23.312;2023-05-27T11:31:21;12.02;;;6.32;;
62696;SDS011;48761;42.680;23.312;2023-05-27T11:33:52;6.78;;;5.35;;
62696;SDS011;48761;42.680;23.312;2023-05-27T11:36:19;9.07;;;5.50;;
62696;SDS011;48761;42.680;23.312;2023-05-27T11:38:49;6.65;;;5.43;;
62696;SDS011;48761;42.680;23.312;2023-05-27T11:41:19;8.52;;;5.13;;
62696;SDS011;48761;42.680;23.312;2023-05-27T11:43:49;8.40;;;5.55;;
62696;SDS011;48761;42.680;23.312;2023-05-27T11:46:16;9.65;;;5.57;;
62696;SDS011;48761;42.680;23.312;2023-05-27T11:48:43;8.90;;;5.75;;
62696;SDS011;48761;42.680;23.312;2023-05-27T11:51:10;8.85;;;6.70;;
62696;SDS011;48761;42.680;23.312;2023-05-27T11:53:40;7.47;;;5.35;;
62696;SDS011;48761;42.680;23.312;2023-05-27T11:56:10;9.55;;;5.07;;
62696;SDS011;48761;42.680;23.312;2023-05-27T11:58:36;7.13;;;5.10;;
62696;SDS011;48761;42.680;23.312;2023-05-27T12:01:03;5.93;;;4.43;;
62696;SDS011;48761;42.680;23.312;2023-05-27T12:03:29;9.82;;;5.95;;
62696;SDS011;48761;42.680;23.312;2023-05-27T12:05:55;11.63;;;5.82;;
62696;SDS011;48761;42.680;23.312;2023-05-27T12:08:21;5.75;;;4.72;;
62696;SDS011;48761;42.680;23.312;2023-05-27T12:10:47;9.32;;;4.75;;
62696;SDS011;48761;42.680;23.312;2023-05-27T12:13:14;10.65;;;4.90;;
62696;SDS011;48761;42.680;23.312;2023-05-27T12:15:40;10.05;;;5.20;;
62696;SDS011;48761;42.680;23.312;2023-05-27T12:18:06;10.63;;;6.05;;
62696;SDS011;48761;42.680;23.312;2023-05-27T12:20:31;8.65;;;5.50;;
62696;SDS011;48761;42.680;23.312;2023-05-27T12:22:58;9.32;;;5.75;;
62696;SDS011;48761;42.680;23.312;2023-05-27T12:25:24;7.45;;;5.20;;
62696;SDS011;48761;42.680;23.312;2023-05-27T12:27:50;7.50;;;4.80;;
62696;SDS011;48761;42.680;23.312;2023-05-27T12:30:16;8.65;;;6.20;;
62696;SDS011;48761;42.680;23.312;2023-05-27T12:32:42;7.40;;;5.50;;
62696;SDS011;48761;42.680;23.312;2023-05-27T12:35:08;8.30;;;6.07;;
62696;SDS011;48761;42.680;23.312;2023-05-27T12:37:34;7.13;;;5.72;;
62696;SDS011;48761;42.680;23.312;2023-05-27T12:39:59;8.23;;;6.25;;
62696;SDS011;48761;42.680;23.312;2023-05-27T12:42:25;6.82;;;5.07;;
62696;SDS011;48761;42.680;23.312;2023-05-27T12:44:51;6.53;;;5.45;;
62696;SDS011;48761;42.680;23.312;2023-05-27T12:47:17;7.32;;;4.95;;
62696;SDS011;48761;42.680;23.312;2023-05-27T12:49:43;6.00;;;5.28;;
62696;SDS011;48761;42.680;23.312;2023-05-27T12:52:09;7.32;;;5.47;;
62696;SDS011;48761;42.680;23.312;2023-05-27T12:54:36;8.05;;;4.97;;
62696;SDS011;48761;42.680;23.312;2023-05-27T12:57:01;6.50;;;4.85;;
62696;SDS011;48761;42.680;23.312;2023-05-27T12:59:28;7.70;;;5.65;;
62696;SDS011;48761;42.680;23.312;2023-05-27T13:01:54;5.60;;;4.85;;
62696;SDS011;48761;42.680;23.312;2023-05-27T13:04:20;5.15;;;4.18;;
62696;SDS011;48761;42.680;23.312;2023-05-27T13:06:46;8.43;;;5.07;;
62696;SDS011;48761;42.680;23.312;2023-05-27T13:09:12;9.32;;;5.95;;
62696;SDS011;48761;42.680;23.312;2023-05-27T13:11:37;5.57;;;4.82;;
62696;SDS011;48761;42.680;23.312;2023-05-27T13:14:03;5.90;;;4.47;;
62696;SDS011;48761;42.680;23.312;2023-05-27T13:16:29;10.88;;;4.97;;
62696;SDS011;48761;42.680;23.312;2023-05-27T13:18:55;5.65;;;4.25;;
62696;SDS011;48761;42.680;23.312;2023-05-27T13:21:21;10.40;;;4.72;;
62696;SDS011;48761;42.680;23.312;2023-05-27T13:23:47;6.00;;;4.55;;
62696;SDS011;48761;42.680;23.312;2023-05-27T13:26:13;10.25;;;5.70;;
62696;SDS011;48761;42.680;23.312;2023-05-27T13:28:40;7.72;;;4.57;;
62696;SDS011;48761;42.680;23.312;2023-05-27T13:31:06;7.25;;;4.47;;
62696;SDS011;48761;42.680;23.312;2023-05-27T13:33:32;5.63;;;4.82;;
62696;SDS011;48761;42.680;23.312;2023-05-27T13:35:58;9.90;;;5.07;;
62696;SDS011;48761;42.680;23.312;2023-05-27T13:38:24;6.00;;;4.50;;
62696;SDS011;48761;42.680;23.312;2023-05-27T13:40:50;6.07;;;4.80;;
62696;SDS011;48761;42.680;23.312;2023-05-27T13:43:17;7.10;;;5.05;;
62696;SDS011;48761;42.680;23.312;2023-05-27T13:45:43;7.28;;;4.50;;
62696;SDS011;48761;42.680;23.312;2023-05-27T13:48:09;6.63;;;4.63;;
62696;SDS011;48761;42.680;23.312;2023-05-27T13:50:35;7.47;;;4.78;;
62696;SDS011;48761;42.680;23.312;2023-05-27T13:53:01;6.93;;;4.47;;
62696;SDS011;48761;42.680;23.312;2023-05-27T13:55:27;8.88;;;4.80;;
62696;SDS011;48761;42.680;23.312;2023-05-27T13:57:53;5.75;;;4.05;;
62696;SDS011;48761;42.680;23.312;2023-05-27T14:00:19;7.43;;;4.70;;
62696;SDS011;48761;42.680;23.312;2023-05-27T14:02:48;7.18;;;4.68;;
62696;SDS011;48761;42.680;23.312;2023-05-27T14:05:14;6.35;;;5.05;;
62696;SDS011;48761;42.680;23.312;2023-05-27T14:07:40;13.00;;;7.53;;
62696;SDS011;48761;42.680;23.312;2023-05-27T14:10:07;8.60;;;4.55;;
62696;SDS011;48761;42.680;23.312;2023-05-27T14:12:33;4.85;;;4.28;;
62696;SDS011;48761;42.680;23.312;2023-05-27T14:14:59;5.32;;;4.53;;
62696;SDS011;48761;42.680;23.312;2023-05-27T14:17:25;6.28;;;4.60;;
62696;SDS011;48761;42.680;23.312;2023-05-27T14:19:51;7.43;;;4.75;;
62696;SDS011;48761;42.680;23.312;2023-05-27T14:22:17;6.68;;;4.53;;
62696;SDS011;48761;42.680;23.312;2023-05-27T14:24:43;9.95;;;4.72;;
62696;SDS011;48761;42.680;23.312;2023-05-27T14:27:09;6.50;;;4.97;;
62696;SDS011;48761;42.680;23.312;2023-05-27T14:29:35;6.85;;;4.45;;
62696;SDS011;48761;42.680;23.312;2023-05-27T14:32:01;9.23;;;4.93;;
62696;SDS011;48761;42.680;23.312;2023-05-27T14:34:27;12.35;;;9.20;;
62696;SDS011;48761;42.680;23.312;2023-05-27T14:36:53;7.25;;;4.88;;
62696;SDS011;48761;42.680;23.312;2023-05-27T14:39:19;7.65;;;5.07;;
62696;SDS011;48761;42.680;23.312;2023-05-27T14:41:45;6.65;;;4.53;;
62696;SDS011;48761;42.680;23.312;2023-05-27T14:44:11;8.52;;;4.72;;
62696;SDS011;48761;42.680;23.312;2023-05-27T14:46:37;7.65;;;4.65;;